Terminal Aerodrome Forecast
Issued by NWS

Home | Current Version | Previous Version | Text Only | Print | Product List | Glossary On
Versions: 1 2 3 4 5 6 7 8 9 10 11 12 13 14 15
000
FTUS41 KGYX 271120
TAFPSM
TAF
KPSM 271120Z 2712/2812 30004KT 5SM -SHRA BR OVC025
     FM271400 36004KT P6SM OVC035
     FM280500 36006KT 6SM -SHSN OVC035=

USA.gov is the U.S. government's official web portal to all federal, state and local government web resources and services.